CFS8757 KLBB-KMAF
Flight info
| Callsign | CFS8757 |
|---|---|
| Flight time | N/A |
| Altitude | 11000 |
| Route | DCT LBB V81 MAF/N0288F100 |
| Aircraft | AT73/M-SDFGIRY/S |
Departure
| Time | 2026-04-23 02:26 |
|---|---|
| Airport | Lubbock Preston Smith International Airport (KLBB) |
Arrival
| Time | N/A |
|---|---|
| Airport | Midland International Air and Space Port (KMAF) |
| Time | Latitude | Longitude | Altitude | Speed | Heading |
|---|---|---|---|---|---|
| 2026-04-23 02:12 | 33.67317 | -101.83331 | 3261 ft | 12 kts | 6° |
| 2026-04-23 02:16 | 33.67322 | -101.83329 | 3264 ft | 5 kts | 14° |
| 2026-04-23 02:16 | 33.67378 | -101.83272 | 3265 ft | 13 kts | 42° |
| 2026-04-23 02:17 | 33.67400 | -101.83198 | 3264 ft | 10 kts | 88° |
| 2026-04-23 02:17 | 33.67399 | -101.83104 | 3263 ft | 12 kts | 92° |
| 2026-04-23 02:17 | 33.67399 | -101.83045 | 3261 ft | 4 kts | 89° |
| 2026-04-23 02:17 | 33.67399 | -101.83008 | 3260 ft | 0 kts | 91° |
| 2026-04-23 02:18 | 33.67399 | -101.83004 | 3260 ft | 3 kts | 91° |
| 2026-04-23 02:18 | 33.67399 | -101.82926 | 3258 ft | 16 kts | 90° |
| 2026-04-23 02:19 | 33.67399 | -101.82818 | 3258 ft | 14 kts | 90° |
| 2026-04-23 02:19 | 33.67413 | -101.82709 | 3260 ft | 15 kts | 43° |
| 2026-04-23 02:19 | 33.67539 | -101.82701 | 3259 ft | 25 kts | 1° |
| 2026-04-23 02:19 | 33.67681 | -101.82704 | 3261 ft | 20 kts | 358° |
| 2026-04-23 02:20 | 33.67834 | -101.82705 | 3264 ft | 21 kts | 360° |
| 2026-04-23 02:20 | 33.67970 | -101.82706 | 3264 ft | 21 kts | 360° |
| 2026-04-23 02:20 | 33.68125 | -101.82707 | 3267 ft | 22 kts | 360° |
| 2026-04-23 02:20 | 33.68224 | -101.82746 | 3267 ft | 11 kts | 282° |
| 2026-04-23 02:21 | 33.68225 | -101.82802 | 3268 ft | 0 kts | 270° |
| 2026-04-23 02:24 | 33.68225 | -101.82829 | 3268 ft | 7 kts | 270° |
| 2026-04-23 02:25 | 33.68206 | -101.82894 | 3266 ft | 7 kts | 211° |
| 2026-04-23 02:25 | 33.68158 | -101.82907 | 3267 ft | 16 kts | 184° |
| 2026-04-23 02:25 | 33.67850 | -101.82904 | 3262 ft | 78 kts | 180° |
| 2026-04-23 02:25 | 33.67126 | -101.82887 | 3473 ft | 117 kts | 178° |
| 2026-04-23 02:26 | 33.66303 | -101.82864 | 4135 ft | 125 kts | 179° |
| 2026-04-23 02:26 | 33.65343 | -101.83088 | 4581 ft | 155 kts | 199° |
| 2026-04-23 02:26 | 33.64380 | -101.83515 | 5458 ft | 141 kts | 187° |
| 2026-04-23 02:26 | 33.63493 | -101.83907 | 6261 ft | 142 kts | 225° |
| 2026-04-23 02:27 | 33.63303 | -101.85084 | 7018 ft | 163 kts | 279° |
| 2026-04-23 02:27 | 33.64106 | -101.86129 | 7861 ft | 183 kts | 324° |
| 2026-04-23 02:27 | 33.65227 | -101.86818 | 8780 ft | 178 kts | 322° |
| 2026-04-23 02:27 | 33.66294 | -101.87545 | 9697 ft | 173 kts | 318° |
| 2026-04-23 02:28 | 33.67293 | -101.88323 | 10533 ft | 169 kts | 314° |
| 2026-04-23 02:28 | 33.68264 | -101.89216 | 10965 ft | 193 kts | 310° |
| 2026-04-23 02:28 | 33.68987 | -101.90655 | 10976 ft | 215 kts | 275° |
| 2026-04-23 02:28 | 33.68719 | -101.92464 | 10996 ft | 234 kts | 240° |
| 2026-04-23 02:29 | 33.67482 | -101.93821 | 10996 ft | 257 kts | 208° |
| 2026-04-23 02:29 | 33.65674 | -101.94157 | 10986 ft | 272 kts | 179° |
| 2026-04-23 02:29 | 33.63817 | -101.93783 | 10989 ft | 270 kts | 176° |
| 2026-04-23 02:29 | 33.61985 | -101.93403 | 10977 ft | 269 kts | 177° |
| 2026-04-23 02:30 | 33.60124 | -101.93210 | 10978 ft | 267 kts | 184° |
| 2026-04-23 02:30 | 33.58281 | -101.93312 | 10976 ft | 265 kts | 191° |
| 2026-04-23 02:30 | 33.56455 | -101.93615 | 10973 ft | 265 kts | 194° |
| 2026-04-23 02:30 | 33.54639 | -101.93967 | 10963 ft | 265 kts | 194° |
| 2026-04-23 02:31 | 33.52817 | -101.94316 | 10953 ft | 265 kts | 194° |
| 2026-04-23 02:31 | 33.50992 | -101.94651 | 10952 ft | 266 kts | 193° |
| 2026-04-23 02:31 | 33.49160 | -101.94965 | 10941 ft | 266 kts | 193° |
| 2026-04-23 02:31 | 33.47326 | -101.95264 | 10930 ft | 266 kts | 193° |
| 2026-04-23 02:32 | 33.45488 | -101.95554 | 10925 ft | 266 kts | 192° |
| 2026-04-23 02:32 | 33.43658 | -101.95839 | 10912 ft | 266 kts | 192° |
| 2026-04-23 02:32 | 33.41818 | -101.96119 | 10910 ft | 265 kts | 192° |
| 2026-04-23 02:32 | 33.39985 | -101.96417 | 10896 ft | 266 kts | 192° |
| 2026-04-23 02:33 | 33.38182 | -101.96712 | 10895 ft | 266 kts | 193° |
| 2026-04-23 02:33 | 33.36350 | -101.97012 | 10882 ft | 266 kts | 193° |
| 2026-04-23 02:33 | 33.34516 | -101.97313 | 10880 ft | 267 kts | 193° |
| 2026-04-23 02:33 | 33.32676 | -101.97624 | 10864 ft | 267 kts | 193° |
| 2026-04-23 02:34 | 33.30829 | -101.97929 | 10872 ft | 268 kts | 193° |
| 2026-04-23 02:34 | 33.28985 | -101.98235 | 10870 ft | 268 kts | 193° |
| 2026-04-23 02:34 | 33.27139 | -101.98542 | 10869 ft | 268 kts | 193° |
| 2026-04-23 02:34 | 33.25290 | -101.98844 | 10874 ft | 268 kts | 193° |
| 2026-04-23 02:35 | 33.23440 | -101.99152 | 10868 ft | 268 kts | 193° |
| 2026-04-23 02:35 | 33.21592 | -101.99456 | 10875 ft | 268 kts | 193° |
| 2026-04-23 02:35 | 33.19744 | -101.99758 | 10878 ft | 268 kts | 193° |
| 2026-04-23 02:35 | 33.17890 | -102.00060 | 10868 ft | 269 kts | 193° |
| 2026-04-23 02:36 | 33.16034 | -102.00368 | 10870 ft | 269 kts | 192° |
| 2026-04-23 02:36 | 33.14177 | -102.00668 | 10867 ft | 269 kts | 193° |
| 2026-04-23 02:36 | 33.12320 | -102.00974 | 10869 ft | 269 kts | 193° |
| 2026-04-23 02:36 | 33.10463 | -102.01275 | 10872 ft | 269 kts | 193° |
| 2026-04-23 02:37 | 33.08595 | -102.01578 | 10869 ft | 271 kts | 193° |
| 2026-04-23 02:37 | 33.06731 | -102.01881 | 10874 ft | 271 kts | 193° |
| 2026-04-23 02:37 | 33.04885 | -102.02190 | 10876 ft | 272 kts | 193° |
| 2026-04-23 02:37 | 33.02990 | -102.02501 | 10925 ft | 272 kts | 193° |
| 2026-04-23 02:38 | 33.01134 | -102.02808 | 10930 ft | 272 kts | 193° |
| 2026-04-23 02:38 | 32.99255 | -102.03115 | 10944 ft | 272 kts | 193° |
| 2026-04-23 02:38 | 32.97375 | -102.03423 | 10946 ft | 272 kts | 193° |
| 2026-04-23 02:38 | 32.95502 | -102.03726 | 10964 ft | 272 kts | 193° |
| 2026-04-23 02:39 | 32.93625 | -102.04032 | 10972 ft | 272 kts | 193° |
| 2026-04-23 02:39 | 32.91750 | -102.04349 | 10965 ft | 270 kts | 194° |
| 2026-04-23 02:39 | 32.89893 | -102.04712 | 10986 ft | 270 kts | 192° |
| 2026-04-23 02:39 | 32.88036 | -102.05020 | 10982 ft | 270 kts | 191° |
| 2026-04-23 02:40 | 32.86176 | -102.05320 | 10977 ft | 270 kts | 191° |
| 2026-04-23 02:40 | 32.84317 | -102.05624 | 10983 ft | 270 kts | 191° |
| 2026-04-23 02:40 | 32.82475 | -102.05924 | 10987 ft | 270 kts | 191° |
| 2026-04-23 02:40 | 32.80616 | -102.06226 | 10986 ft | 270 kts | 191° |
| 2026-04-23 02:41 | 32.78756 | -102.06530 | 10990 ft | 270 kts | 191° |
| 2026-04-23 02:41 | 32.76896 | -102.06833 | 10991 ft | 270 kts | 191° |
| 2026-04-23 02:41 | 32.75041 | -102.07131 | 10987 ft | 269 kts | 191° |
| 2026-04-23 02:41 | 32.73177 | -102.07435 | 10987 ft | 269 kts | 191° |
| 2026-04-23 02:42 | 32.71318 | -102.07738 | 10980 ft | 270 kts | 191° |
| 2026-04-23 02:42 | 32.69461 | -102.08040 | 10976 ft | 270 kts | 191° |
| 2026-04-23 02:42 | 32.67597 | -102.08342 | 10968 ft | 270 kts | 191° |
| 2026-04-23 02:42 | 32.65740 | -102.08643 | 10968 ft | 269 kts | 191° |
| 2026-04-23 02:43 | 32.63877 | -102.08947 | 10962 ft | 270 kts | 191° |
| 2026-04-23 02:43 | 32.62020 | -102.09246 | 10952 ft | 269 kts | 191° |
| 2026-04-23 02:43 | 32.60160 | -102.09549 | 10945 ft | 270 kts | 191° |
| 2026-04-23 02:43 | 32.58303 | -102.09850 | 10936 ft | 269 kts | 192° |
| 2026-04-23 02:44 | 32.56444 | -102.10147 | 10929 ft | 270 kts | 192° |
| 2026-04-23 02:44 | 32.54579 | -102.10422 | 10919 ft | 271 kts | 193° |
| 2026-04-23 02:44 | 32.52706 | -102.10713 | 10910 ft | 271 kts | 193° |
| 2026-04-23 02:44 | 32.50839 | -102.11017 | 10897 ft | 271 kts | 193° |
| 2026-04-23 02:45 | 32.48968 | -102.11325 | 10893 ft | 272 kts | 193° |
| 2026-04-23 02:45 | 32.47087 | -102.11633 | 10878 ft | 272 kts | 193° |
| 2026-04-23 02:45 | 32.45212 | -102.11937 | 10872 ft | 272 kts | 193° |
| 2026-04-23 02:45 | 32.43336 | -102.12239 | 10865 ft | 272 kts | 193° |
| 2026-04-23 02:46 | 32.41461 | -102.12541 | 10868 ft | 272 kts | 193° |
| 2026-04-23 02:46 | 32.39581 | -102.12841 | 10870 ft | 272 kts | 193° |
| 2026-04-23 02:46 | 32.37725 | -102.13141 | 10871 ft | 273 kts | 193° |
| 2026-04-23 02:46 | 32.35845 | -102.13444 | 10863 ft | 273 kts | 193° |
| 2026-04-23 02:47 | 32.33963 | -102.13748 | 10902 ft | 273 kts | 193° |
| 2026-04-23 02:47 | 32.32081 | -102.14053 | 10910 ft | 273 kts | 193° |
| 2026-04-23 02:47 | 32.30199 | -102.14355 | 10891 ft | 274 kts | 193° |
| 2026-04-23 02:47 | 32.28289 | -102.14658 | 10744 ft | 280 kts | 193° |
| 2026-04-23 02:48 | 32.26365 | -102.14974 | 10601 ft | 274 kts | 193° |
| 2026-04-23 02:48 | 32.25094 | -102.15178 | 10506 ft | 270 kts | 193° |
| 2026-04-23 02:48 | 32.23263 | -102.15469 | 10272 ft | 270 kts | 193° |
| 2026-04-23 02:48 | 32.21394 | -102.15769 | 9933 ft | 272 kts | 193° |
| 2026-04-23 02:49 | 32.19511 | -102.16073 | 9580 ft | 273 kts | 193° |
| 2026-04-23 02:49 | 32.17630 | -102.16379 | 9207 ft | 271 kts | 193° |
| 2026-04-23 02:49 | 32.15774 | -102.16677 | 8845 ft | 268 kts | 192° |
| 2026-04-23 02:49 | 32.13936 | -102.16969 | 8492 ft | 265 kts | 192° |
| 2026-04-23 02:50 | 32.12127 | -102.17253 | 8293 ft | 258 kts | 192° |
| 2026-04-23 02:50 | 32.10382 | -102.17525 | 8206 ft | 249 kts | 192° |
| 2026-04-23 02:50 | 32.08693 | -102.17791 | 8163 ft | 241 kts | 192° |
| 2026-04-23 02:50 | 32.07052 | -102.18055 | 8140 ft | 235 kts | 192° |
| 2026-04-23 02:51 | 32.05450 | -102.18307 | 8127 ft | 230 kts | 192° |
| 2026-04-23 02:51 | 32.03871 | -102.18564 | 8128 ft | 228 kts | 192° |
| 2026-04-23 02:51 | 32.02303 | -102.18812 | 8090 ft | 226 kts | 191° |
| 2026-04-23 02:51 | 32.00761 | -102.19094 | 8092 ft | 219 kts | 198° |
| 2026-04-23 02:52 | 31.99538 | -102.20071 | 7915 ft | 219 kts | 230° |
| 2026-04-23 02:52 | 31.98818 | -102.21861 | 6762 ft | 261 kts | 257° |
| 2026-04-23 02:52 | 31.99011 | -102.23910 | 6671 ft | 256 kts | 284° |
| 2026-04-23 02:52 | 32.00115 | -102.25685 | 5974 ft | 283 kts | 317° |
| 2026-04-23 02:53 | 32.01927 | -102.26693 | 5332 ft | 295 kts | 346° |
| 2026-04-23 02:53 | 32.03923 | -102.26733 | 4913 ft | 274 kts | 11° |
| 2026-04-23 02:53 | 32.05560 | -102.25910 | 5005 ft | 243 kts | 31° |
| 2026-04-23 02:53 | 32.07006 | -102.25003 | 5037 ft | 229 kts | 28° |
| 2026-04-23 02:54 | 32.08415 | -102.24250 | 5051 ft | 216 kts | 24° |
| 2026-04-23 02:54 | 32.09767 | -102.23631 | 5049 ft | 207 kts | 19° |
| 2026-04-23 02:54 | 32.11135 | -102.23194 | 5050 ft | 200 kts | 12° |
| 2026-04-23 02:54 | 32.12489 | -102.22942 | 5049 ft | 194 kts | 5° |
| 2026-04-23 02:55 | 32.13817 | -102.22856 | 5014 ft | 189 kts | 360° |
| 2026-04-23 02:55 | 32.15645 | -102.22709 | 3563 ft | 175 kts | 7° |
| 2026-04-23 02:55 | 32.15898 | -102.22676 | 3538 ft | 181 kts | 7° |